createdAt,value
2022-12-03T00:00:16.482Z,80.22
2022-12-03T00:02:44.719Z,80.59
2022-12-03T00:05:13.133Z,80.26
2022-12-03T00:07:42.727Z,80.27
2022-12-03T00:10:11.828Z,80.60
2022-12-03T00:12:40.115Z,81.00
2022-12-03T00:15:10.747Z,80.88
2022-12-03T00:17:39.194Z,80.75
2022-12-03T00:20:09.757Z,80.58
2022-12-03T00:22:37.956Z,81.35
2022-12-03T00:25:09.488Z,81.38
2022-12-03T00:27:37.639Z,81.50
2022-12-03T00:30:08.449Z,81.42
2022-12-03T00:32:39.610Z,81.41
2022-12-03T00:35:08.793Z,81.93
2022-12-03T00:37:36.992Z,81.86
2022-12-03T00:40:08.063Z,82.08
2022-12-03T00:42:36.255Z,81.52
2022-12-03T00:45:05.129Z,81.97
2022-12-03T00:47:33.257Z,81.86
2022-12-03T00:50:01.427Z,81.75
2022-12-03T00:52:29.579Z,81.56
2022-12-03T00:54:57.769Z,81.70
2022-12-03T00:57:27.367Z,81.65
2022-12-03T00:59:55.518Z,81.53
2022-12-03T01:02:23.932Z,81.42
2022-12-03T01:04:52.553Z,81.42
2022-12-03T01:07:21.024Z,81.09
2022-12-03T01:09:49.315Z,81.45
2022-12-03T01:12:17.534Z,81.32
2022-12-03T01:14:47.333Z,81.04
2022-12-03T01:17:15.513Z,81.06
2022-12-03T01:19:48.300Z,80.89
2022-12-03T01:22:16.809Z,81.30
2022-12-03T01:24:44.951Z,81.28
2022-12-03T01:27:13.103Z,80.82
2022-12-03T01:29:41.199Z,81.04
2022-12-03T01:32:19.782Z,81.40
2022-12-03T01:34:50.352Z,81.09
2022-12-03T01:37:23.439Z,81.12
2022-12-03T01:39:51.589Z,81.12
2022-12-03T01:42:36.460Z,81.14
2022-12-03T01:45:05.856Z,81.10
2022-12-03T01:47:37.744Z,80.75
2022-12-03T01:50:09.171Z,80.65
2022-12-03T01:52:39.822Z,80.91
2022-12-03T01:55:15.348Z,80.34
2022-12-03T01:57:47.508Z,80.72
2022-12-03T02:00:18.947Z,80.55
2022-12-03T02:02:51.719Z,80.17
2022-12-03T02:05:24.052Z,80.39
2022-12-03T02:07:52.334Z,80.59
2022-12-03T02:10:25.170Z,80.57
2022-12-03T02:12:59.774Z,80.15
2022-12-03T02:15:28.240Z,79.79
2022-12-03T02:17:58.600Z,80.08
2022-12-03T02:20:27.273Z,79.57
2022-12-03T02:23:04.561Z,79.70
2022-12-03T02:25:36.803Z,79.48
2022-12-03T02:28:07.781Z,79.85
2022-12-03T02:30:36.373Z,79.64
2022-12-03T02:33:05.215Z,79.25
2022-12-03T02:35:35.747Z,79.17
2022-12-03T02:38:16.691Z,79.47
2022-12-03T02:40:48.935Z,79.49
2022-12-03T02:43:17.775Z,79.55
2022-12-03T02:45:49.356Z,79.56
2022-12-03T02:48:20.362Z,79.13
2022-12-03T02:50:53.754Z,79.67
2022-12-03T02:53:27.081Z,79.11
2022-12-03T02:56:00.544Z,79.62
2022-12-03T02:58:32.782Z,79.10
2022-12-03T03:01:03.470Z,79.22
2022-12-03T03:03:33.467Z,79.23
2022-12-03T03:06:03.758Z,79.12
2022-12-03T03:08:32.462Z,79.02
2022-12-03T03:11:03.573Z,79.34
2022-12-03T03:13:33.888Z,79.45
2022-12-03T03:16:04.008Z,79.05
2022-12-03T03:18:33.265Z,79.22
2022-12-03T03:21:01.827Z,79.34
2022-12-03T03:23:30.064Z,79.04
2022-12-03T03:26:03.714Z,79.44
2022-12-03T03:28:32.871Z,79.24
2022-12-03T03:31:03.418Z,78.92
2022-12-03T03:33:32.399Z,79.46
2022-12-03T03:36:01.453Z,79.03
2022-12-03T03:38:30.475Z,78.88
2022-12-03T03:41:03.110Z,79.08
2022-12-03T03:43:34.730Z,79.45
2022-12-03T03:46:04.971Z,79.18
2022-12-03T03:48:34.114Z,78.84
2022-12-03T03:51:03.571Z,78.55
2022-12-03T03:53:32.555Z,78.55
2022-12-03T03:56:02.240Z,78.79
2022-12-03T03:58:30.443Z,78.73
2022-12-03T04:00:58.674Z,78.42
2022-12-03T04:03:26.906Z,78.62
2022-12-03T04:05:55.183Z,78.92
2022-12-03T04:08:23.369Z,78.66
2022-12-03T04:11:08.811Z,78.69
2022-12-03T04:13:38.273Z,78.40
2022-12-03T04:16:07.085Z,79.09
2022-12-03T04:18:44.486Z,79.02
2022-12-03T04:21:28.916Z,78.71
2022-12-03T04:23:57.192Z,78.64
2022-12-03T04:26:43.039Z,78.59
2022-12-03T04:29:13.411Z,78.15
2022-12-03T04:31:59.514Z,78.55
2022-12-03T04:34:45.246Z,78.76
2022-12-03T04:37:13.599Z,78.31
2022-12-03T04:39:42.369Z,78.36
2022-12-03T04:42:10.635Z,78.70
2022-12-03T04:44:40.147Z,78.52
2022-12-03T04:47:11.521Z,78.08
2022-12-03T04:49:42.488Z,78.79
2022-12-03T04:52:12.409Z,78.54
2022-12-03T04:54:42.332Z,78.68
2022-12-03T04:57:11.589Z,78.46
2022-12-03T04:59:41.643Z,78.39
2022-12-03T05:02:10.126Z,78.11
2022-12-03T05:04:38.516Z,78.44
2022-12-03T05:07:06.704Z,78.23
2022-12-03T05:09:35.010Z,78.62
2022-12-03T05:12:04.001Z,78.51
2022-12-03T05:14:32.331Z,78.53
2022-12-03T05:17:01.981Z,78.30
2022-12-03T05:19:45.082Z,78.51
2022-12-03T05:22:13.337Z,77.74
2022-12-03T05:24:41.460Z,78.66
2022-12-03T05:27:09.669Z,78.00
2022-12-03T05:29:37.841Z,78.43
2022-12-03T05:32:07.643Z,78.22
2022-12-03T05:34:35.901Z,77.93
2022-12-03T05:37:04.111Z,78.10
2022-12-03T05:39:32.427Z,78.11
2022-12-03T05:42:18.204Z,78.64
2022-12-03T05:44:48.976Z,78.87
2022-12-03T05:47:18.815Z,78.90
2022-12-03T05:49:47.111Z,78.70
2022-12-03T05:52:15.214Z,78.15
2022-12-03T05:54:43.469Z,78.32
2022-12-03T05:57:11.939Z,78.50
2022-12-03T05:59:40.417Z,78.17
2022-12-03T06:02:08.689Z,78.08
2022-12-03T06:04:38.544Z,78.43
2022-12-03T06:07:09.700Z,78.87
2022-12-03T06:09:41.927Z,78.06
2022-12-03T06:12:10.135Z,78.55
2022-12-03T06:14:38.260Z,78.35
2022-12-03T06:17:06.425Z,77.86
2022-12-03T06:19:34.646Z,78.02
2022-12-03T06:22:04.186Z,78.65
2022-12-03T06:24:32.391Z,78.51
2022-12-03T06:27:00.564Z,78.12
2022-12-03T06:29:28.872Z,78.73
2022-12-03T06:31:57.072Z,78.01
2022-12-03T06:34:25.554Z,78.20
2022-12-03T06:36:53.671Z,78.32
2022-12-03T06:39:23.617Z,78.06
2022-12-03T06:41:52.007Z,78.24
2022-12-03T06:44:20.447Z,78.76
2022-12-03T06:47:03.806Z,78.13
2022-12-03T06:49:32.449Z,78.38
2022-12-03T06:52:00.623Z,78.29
2022-12-03T06:54:30.169Z,77.98
2022-12-03T06:56:58.293Z,78.30
2022-12-03T06:59:26.965Z,77.42
2022-12-03T07:01:55.191Z,77.85
2022-12-03T07:04:23.435Z,77.79
2022-12-03T07:06:52.233Z,78.14
2022-12-03T07:09:20.630Z,78.43
2022-12-03T07:11:50.155Z,77.81
2022-12-03T07:14:18.272Z,77.66
2022-12-03T07:16:46.479Z,77.64
2022-12-03T07:19:15.713Z,77.58
2022-12-03T07:21:43.952Z,78.37
2022-12-03T07:24:12.294Z,77.74
2022-12-03T07:26:40.553Z,77.88
2022-12-03T07:29:10.119Z,77.47
2022-12-03T07:31:38.290Z,78.17
2022-12-03T07:34:06.570Z,77.33
2022-12-03T07:36:34.811Z,77.97
2022-12-03T07:39:03.003Z,77.45
2022-12-03T07:41:32.680Z,77.53
2022-12-03T07:44:00.929Z,77.37
2022-12-03T07:46:30.557Z,77.51
2022-12-03T07:48:58.819Z,77.37
2022-12-03T07:51:31.958Z,77.45
2022-12-03T07:54:00.756Z,78.56
2022-12-03T07:56:28.917Z,77.70
2022-12-03T07:58:57.133Z,78.35
2022-12-03T08:01:25.427Z,77.71
2022-12-03T08:03:55.025Z,77.37
2022-12-03T08:06:23.252Z,77.64
2022-12-03T08:08:51.804Z,77.76
2022-12-03T08:11:20.062Z,77.03
2022-12-03T08:13:48.192Z,77.80
2022-12-03T08:16:19.868Z,77.13
2022-12-03T08:18:58.992Z,77.57
2022-12-03T08:21:30.919Z,77.14
2022-12-03T08:23:59.708Z,77.22
2022-12-03T08:26:29.771Z,77.15
2022-12-03T08:28:58.308Z,77.17
2022-12-03T08:31:33.157Z,77.79
2022-12-03T08:34:20.101Z,77.38
2022-12-03T08:36:49.688Z,76.91
2022-12-03T08:39:31.057Z,76.49
2022-12-03T08:42:27.631Z,77.71
2022-12-03T08:44:56.517Z,77.26
2022-12-03T08:47:25.898Z,76.52
2022-12-03T08:49:59.900Z,76.81
2022-12-03T08:52:34.265Z,76.38
2022-12-03T08:55:30.530Z,76.94
2022-12-03T08:57:59.424Z,77.13
2022-12-03T09:00:28.012Z,76.89
2022-12-03T09:03:00.736Z,76.59
2022-12-03T09:05:33.441Z,77.06
2022-12-03T09:08:01.800Z,76.09
2022-12-03T09:10:30.122Z,76.27
2022-12-03T09:12:58.248Z,76.15
2022-12-03T09:15:26.374Z,76.97
2022-12-03T09:17:54.498Z,77.04
2022-12-03T09:20:22.676Z,76.07
2022-12-03T09:22:52.382Z,76.14
2022-12-03T09:25:20.555Z,76.44
2022-12-03T09:27:48.924Z,76.46
2022-12-03T09:30:17.675Z,76.42
2022-12-03T09:32:46.060Z,75.40
2022-12-03T09:35:14.248Z,75.43
2022-12-03T09:37:42.479Z,75.64
2022-12-03T09:40:14.133Z,75.29
2022-12-03T09:42:42.591Z,75.40
2022-12-03T09:45:14.319Z,76.19
2022-12-03T09:47:47.774Z,75.12
2022-12-03T09:50:20.513Z,75.59
2022-12-03T09:52:51.031Z,74.74
2022-12-03T09:55:24.993Z,74.49
2022-12-03T09:57:53.854Z,74.92
2022-12-03T10:00:24.777Z,75.09
2022-12-03T10:02:55.418Z,75.32
2022-12-03T10:05:24.576Z,75.20
2022-12-03T10:07:53.631Z,74.57
2022-12-03T10:10:25.612Z,74.53
2022-12-03T10:12:54.210Z,73.95
2022-12-03T10:15:25.082Z,74.56
2022-12-03T10:17:55.868Z,73.72
2022-12-03T10:20:26.526Z,74.15
2022-12-03T10:22:54.820Z,73.54
2022-12-03T10:25:25.215Z,74.11
2022-12-03T10:27:59.896Z,73.91
2022-12-03T10:30:29.535Z,73.25
2022-12-03T10:33:02.599Z,73.02
2022-12-03T10:35:41.030Z,72.98
2022-12-03T10:38:22.262Z,72.68
2022-12-03T10:40:52.451Z,72.71
2022-12-03T10:43:25.910Z,73.18
2022-12-03T10:46:13.370Z,72.92
2022-12-03T10:48:41.677Z,72.42
2022-12-03T10:51:22.121Z,72.24
2022-12-03T10:53:51.757Z,72.05
2022-12-03T10:56:26.362Z,71.86
2022-12-03T10:58:55.027Z,72.25
2022-12-03T11:01:25.905Z,72.21
2022-12-03T11:03:56.595Z,72.33
2022-12-03T11:06:25.860Z,72.10
2022-12-03T11:08:59.607Z,72.17
2022-12-03T11:11:32.768Z,71.63
2022-12-03T11:14:02.117Z,71.56
2022-12-03T11:17:09.875Z,71.60
2022-12-03T11:19:50.296Z,72.00
2022-12-03T11:22:40.725Z,71.45
2022-12-03T11:28:54.498Z,71.52
2022-12-03T11:31:38.407Z,71.56
2022-12-03T11:34:49.731Z,71.10
2022-12-03T11:37:25.995Z,71.14
2022-12-03T11:40:39.141Z,71.13
2022-12-03T11:43:12.000Z,70.57
2022-12-03T11:45:41.619Z,70.77
2022-12-03T11:48:15.505Z,70.66
2022-12-03T11:50:45.568Z,71.00
2022-12-03T11:53:18.809Z,70.51
2022-12-03T11:55:53.136Z,70.16
2022-12-03T11:58:26.434Z,70.58
2022-12-03T12:00:59.639Z,70.17
2022-12-03T12:03:33.501Z,70.35
2022-12-03T12:06:05.562Z,70.09
2022-12-03T12:08:35.460Z,69.95
2022-12-03T12:11:03.999Z,70.34
2022-12-03T12:13:55.615Z,69.62
2022-12-03T12:16:58.357Z,70.23
2022-12-03T12:19:39.871Z,69.76
2022-12-03T12:22:31.083Z,70.00
2022-12-03T12:25:01.568Z,69.59
2022-12-03T12:27:37.479Z,70.00
2022-12-03T12:30:10.915Z,69.91
2022-12-03T12:32:47.567Z,69.56
2022-12-03T12:35:19.982Z,69.49
2022-12-03T12:37:59.149Z,69.42
2022-12-03T12:40:30.617Z,69.44
2022-12-03T12:43:03.024Z,69.18
2022-12-03T12:45:37.487Z,69.15
2022-12-03T12:48:18.270Z,69.82
2022-12-03T12:50:49.096Z,68.82
2022-12-03T12:53:24.822Z,68.88
2022-12-03T12:55:58.086Z,69.09
2022-12-03T12:58:28.930Z,69.06
2022-12-03T13:01:00.577Z,68.67
2022-12-03T13:03:34.852Z,69.39
2022-12-03T13:06:04.142Z,69.04
2022-12-03T13:08:34.737Z,69.14
2022-12-03T13:11:04.027Z,68.59
2022-12-03T13:13:43.069Z,68.63
2022-12-03T13:16:18.342Z,69.26
2022-12-03T13:18:50.778Z,69.20
2022-12-03T13:21:25.563Z,68.64
2022-12-03T13:23:56.592Z,69.05
2022-12-03T13:26:37.677Z,69.19
2022-12-03T13:29:13.757Z,69.27
2022-12-03T13:31:44.427Z,69.50
2022-12-03T13:34:22.891Z,69.16
2022-12-03T13:36:57.515Z,69.08
2022-12-03T13:39:32.480Z,69.16
2022-12-03T13:42:49.340Z,69.44
2022-12-03T13:45:36.829Z,69.57
2022-12-03T13:48:21.207Z,70.14
2022-12-03T13:50:53.005Z,70.17
2022-12-03T13:53:24.192Z,69.75
2022-12-03T13:55:56.405Z,69.28
2022-12-03T13:58:24.642Z,70.08
2022-12-03T14:00:52.878Z,70.08
2022-12-03T14:03:21.197Z,69.64
2022-12-03T14:05:50.708Z,70.43
2022-12-03T14:08:18.945Z,70.18
2022-12-03T14:10:47.277Z,70.54
2022-12-03T14:13:15.520Z,69.90
2022-12-03T14:15:43.747Z,69.84
2022-12-03T14:18:11.930Z,70.50
2022-12-03T14:20:40.094Z,70.20
2022-12-03T14:23:09.691Z,70.94
2022-12-03T14:25:37.842Z,70.87
2022-12-03T14:28:08.680Z,71.02
2022-12-03T14:30:36.994Z,70.56
2022-12-03T14:33:05.521Z,71.09
2022-12-03T14:35:33.748Z,70.51
2022-12-03T14:38:01.939Z,70.40
2022-12-03T14:40:31.447Z,70.67
2022-12-03T14:42:59.707Z,70.78
2022-12-03T14:45:30.082Z,70.40
2022-12-03T14:47:58.304Z,70.75
2022-12-03T14:50:26.465Z,71.10
2022-12-03T14:52:54.845Z,71.04
2022-12-03T14:55:24.095Z,71.20
2022-12-03T14:57:53.751Z,71.15
2022-12-03T15:00:23.481Z,70.88
2022-12-03T15:02:51.700Z,70.92
2022-12-03T15:05:26.416Z,71.79
2022-12-03T15:07:56.790Z,71.13
2022-12-03T15:10:25.005Z,72.10
2022-12-03T15:12:54.847Z,71.94
2022-12-03T15:15:23.027Z,71.91
2022-12-03T15:17:51.242Z,72.69
2022-12-03T15:20:19.775Z,72.76
2022-12-03T15:22:48.036Z,72.74
2022-12-03T15:25:18.152Z,71.81
2022-12-03T15:27:46.492Z,72.04
2022-12-03T15:30:16.689Z,73.03
2022-12-03T15:32:44.913Z,72.20
2022-12-03T15:35:17.628Z,73.09
2022-12-03T15:37:46.013Z,72.45
2022-12-03T15:40:15.197Z,73.16
2022-12-03T15:42:43.377Z,72.25
2022-12-03T15:45:15.361Z,72.48
2022-12-03T15:47:45.555Z,72.34
2022-12-03T15:50:14.350Z,72.90
2022-12-03T15:52:43.127Z,73.13
2022-12-03T15:55:12.267Z,72.97
2022-12-03T15:57:40.495Z,73.21
2022-12-03T16:00:12.725Z,72.56
2022-12-03T16:02:41.064Z,72.98
2022-12-03T16:05:14.262Z,73.24
2022-12-03T16:07:42.579Z,73.02
2022-12-03T16:10:12.285Z,72.88
2022-12-03T16:12:40.497Z,73.75
2022-12-03T16:15:10.004Z,73.84
2022-12-03T16:17:38.221Z,73.32
2022-12-03T16:20:08.643Z,73.99
2022-12-03T16:22:38.193Z,73.75
2022-12-03T16:25:07.285Z,73.77
2022-12-03T16:27:37.028Z,74.17
2022-12-03T16:30:07.838Z,73.42
2022-12-03T16:32:36.055Z,73.91
2022-12-03T16:35:04.663Z,73.64
2022-12-03T16:37:33.562Z,73.57
2022-12-03T16:40:04.194Z,73.73
2022-12-03T16:42:32.370Z,73.64
2022-12-03T16:45:22.964Z,74.49
2022-12-03T16:47:51.215Z,74.51
2022-12-03T16:50:27.414Z,73.65
2022-12-03T16:52:57.552Z,74.47
2022-12-03T16:55:27.282Z,74.07
2022-12-03T16:57:55.507Z,73.74
2022-12-03T17:00:25.803Z,73.94
2022-12-03T17:02:54.090Z,73.94
2022-12-03T17:05:22.343Z,74.98
2022-12-03T17:07:50.637Z,74.15
2022-12-03T17:10:19.092Z,74.55
2022-12-03T17:13:08.694Z,74.87
2022-12-03T17:15:37.666Z,75.00
2022-12-03T17:18:07.059Z,74.91
2022-12-03T17:20:37.404Z,75.02
2022-12-03T17:23:05.757Z,75.05
2022-12-03T17:25:34.407Z,74.39
2022-12-03T17:28:04.110Z,74.85
2022-12-03T17:30:32.390Z,74.56
2022-12-03T17:33:00.592Z,75.30
2022-12-03T17:35:28.837Z,75.02
2022-12-03T17:37:57.184Z,74.43
2022-12-03T17:40:25.415Z,74.88
2022-12-03T17:42:53.603Z,75.39
2022-12-03T17:45:23.227Z,74.60
2022-12-03T17:47:51.440Z,74.86
2022-12-03T17:50:19.938Z,75.85
2022-12-03T17:52:48.612Z,75.08
2022-12-03T17:55:30.946Z,75.70
2022-12-03T17:58:04.783Z,74.94
2022-12-03T18:00:35.765Z,75.63
2022-12-03T18:03:04.176Z,74.66
2022-12-03T18:05:34.715Z,75.28
2022-12-03T18:08:11.269Z,75.25
2022-12-03T18:10:41.470Z,75.23
2022-12-03T18:13:14.965Z,74.98
2022-12-03T18:16:00.051Z,75.61
2022-12-03T18:18:36.121Z,75.13
2022-12-03T18:21:18.526Z,75.62
2022-12-03T18:23:56.723Z,75.56
2022-12-03T18:26:26.610Z,75.95
2022-12-03T18:28:55.388Z,75.24
2022-12-03T18:31:27.285Z,75.18
2022-12-03T18:33:55.971Z,75.90
2022-12-03T18:36:32.478Z,75.45
2022-12-03T18:39:03.327Z,76.28
2022-12-03T18:41:35.327Z,75.89
2022-12-03T18:44:05.411Z,75.96
2022-12-03T18:46:54.728Z,75.87
2022-12-03T18:49:28.041Z,75.44
2022-12-03T18:51:59.736Z,75.70
2022-12-03T18:57:21.166Z,75.52
2022-12-03T18:59:50.955Z,76.24
2022-12-03T19:07:55.607Z,76.24
2022-12-03T19:10:30.332Z,75.85
2022-12-03T19:13:08.196Z,75.50
2022-12-03T19:15:41.586Z,75.98
2022-12-03T19:18:17.083Z,76.03
2022-12-03T19:20:47.144Z,75.60
2022-12-03T19:23:26.246Z,75.29
2022-12-03T19:26:00.908Z,75.86
2022-12-03T19:28:35.193Z,75.78
2022-12-03T19:31:10.022Z,75.50
2022-12-03T19:33:49.237Z,76.41
2022-12-03T19:36:26.010Z,75.98
2022-12-03T19:39:02.958Z,75.52
2022-12-03T19:41:32.693Z,75.05
2022-12-03T19:44:10.794Z,75.39
2022-12-03T19:46:45.413Z,75.04
2022-12-03T19:49:21.488Z,75.04
2022-12-03T19:51:51.428Z,74.95
2022-12-03T19:54:21.890Z,75.26
2022-12-03T19:57:03.699Z,74.38
2022-12-03T19:59:33.389Z,74.91
2022-12-03T20:02:02.709Z,74.15
2022-12-03T20:04:32.632Z,74.27
2022-12-03T20:07:02.596Z,74.85
2022-12-03T20:09:31.567Z,74.97
2022-12-03T20:12:03.698Z,74.48
2022-12-03T20:14:39.325Z,74.63
2022-12-03T20:17:14.450Z,75.06
2022-12-03T20:19:57.182Z,74.93
2022-12-03T20:22:27.795Z,74.84
2022-12-03T20:25:03.528Z,74.62
2022-12-03T20:27:40.543Z,74.27
2022-12-03T20:30:15.896Z,73.93
2022-12-03T20:32:51.759Z,74.28
2022-12-03T20:35:33.188Z,73.43
2022-12-03T20:38:06.836Z,74.49
2022-12-03T20:40:43.699Z,74.15
2022-12-03T20:43:22.052Z,74.09
2022-12-03T20:46:06.993Z,73.75
2022-12-03T20:48:40.469Z,73.97
2022-12-03T20:51:16.302Z,73.41
2022-12-03T20:53:50.341Z,74.14
2022-12-03T20:56:26.979Z,73.78
2022-12-03T21:01:51.107Z,73.32
2022-12-03T21:04:26.802Z,74.09
2022-12-03T21:06:56.764Z,73.71
2022-12-03T21:09:25.276Z,74.48
2022-12-03T21:11:55.836Z,74.07
2022-12-03T21:14:26.788Z,73.62
2022-12-03T21:17:11.938Z,73.96
2022-12-03T21:19:44.498Z,73.19
2022-12-03T21:22:14.789Z,73.52
2022-12-03T21:24:43.777Z,73.98
2022-12-03T21:27:18.450Z,73.80
2022-12-03T21:29:58.669Z,73.64
2022-12-03T21:32:27.580Z,73.32
2022-12-03T21:35:02.151Z,73.47
2022-12-03T21:37:43.449Z,74.05
2022-12-03T21:40:16.165Z,73.49
2022-12-03T21:42:48.831Z,73.47
2022-12-03T21:45:21.669Z,73.23
2022-12-03T21:47:59.250Z,73.53
2022-12-03T21:50:29.073Z,73.72
2022-12-03T21:53:07.436Z,73.71
2022-12-03T21:55:39.791Z,73.92
2022-12-03T21:58:11.664Z,74.28
2022-12-03T22:00:42.775Z,73.73
2022-12-03T22:03:20.196Z,73.73
2022-12-03T22:05:54.021Z,74.29
2022-12-03T22:08:28.924Z,73.45
2022-12-03T22:10:59.326Z,74.50
2022-12-03T22:13:27.816Z,74.07
2022-12-03T22:15:57.399Z,73.95
2022-12-03T22:18:26.231Z,73.72
2022-12-03T22:20:57.538Z,73.76
2022-12-03T22:23:28.056Z,74.29
2022-12-03T22:26:13.358Z,73.70
2022-12-03T22:28:46.344Z,74.00
2022-12-03T22:31:16.960Z,74.73
2022-12-03T22:33:50.718Z,74.44
2022-12-03T22:36:25.114Z,74.11
2022-12-03T22:39:04.633Z,74.74
2022-12-03T22:41:43.265Z,74.51
2022-12-03T22:44:14.105Z,74.47
2022-12-03T22:46:45.027Z,74.73
2022-12-03T22:49:16.492Z,74.58
2022-12-03T22:51:48.352Z,74.53
2022-12-03T22:54:24.226Z,74.40
2022-12-03T22:56:55.994Z,74.25
2022-12-03T22:59:25.862Z,73.97
2022-12-03T23:02:10.740Z,74.91
2022-12-03T23:04:46.234Z,74.85
2022-12-03T23:07:17.238Z,74.01
2022-12-03T23:09:53.335Z,74.36
2022-12-03T23:12:26.594Z,74.72
2022-12-03T23:14:58.932Z,74.94
2022-12-03T23:17:27.892Z,75.01
2022-12-03T23:19:57.829Z,74.80
2022-12-03T23:22:26.752Z,74.91
2022-12-03T23:25:01.350Z,74.45
2022-12-03T23:27:37.363Z,74.51
2022-12-03T23:30:14.323Z,75.18
2022-12-03T23:32:45.258Z,74.11
2022-12-03T23:35:16.983Z,74.20
2022-12-03T23:37:46.876Z,74.54
2022-12-03T23:40:19.657Z,74.67
2022-12-03T23:42:55.778Z,75.00
2022-12-03T23:45:29.128Z,74.54
2022-12-03T23:48:04.343Z,74.35
2022-12-03T23:50:35.186Z,74.03
2022-12-03T23:53:06.431Z,74.75
2022-12-03T23:55:46.578Z,74.29
2022-12-03T23:58:20.550Z,74.25
